United Spirit — ELYB2 — position and weather

sailwx.info

Track history (hours):
 
Tides and Currents Weather Stations Pressure Air Temp Water Temp Dewpoint Dewpoint Depression Visibility Wind Speed Wind Dir Waves Ship Positions

United Spirit

Last reported at 2014-Nov-18 09:09 UTC. Time now 2014-Nov-23 05:50 UTC.
Position N 33°59' E 134°56'.

Type: Cargo ship. MMSI: 636011280.

Date/timePositionNaut miles runAvg speedWind from/ knotsBaromVisibWave heightAir tempDewpointWater temp
2014-Nov-18 09:09N 33°59' E 134°56'1016.8
2014-Nov-18 08:33N 34°09' E 134°57'1313.5
2014-Nov-18 07:33N 34°22' E 135°01'1717.4
2014-Nov-18 06:34N 34°34' E 135°15'7 6.6
2014-Nov-18 05:28N 34°42' E 135°14'0 0.0
2014-Nov-18 04:28N 34°42' E 135°14'0 0.0
2014-Nov-18 03:28N 34°42' E 135°14'0 0.0
2014-Nov-18 02:28N 34°42' E 135°14'0 0.0
2014-Nov-18 01:28N 34°42' E 135°14'0 0.0
2014-Nov-18 00:28N 34°42' E 135°14'0 0.0
2014-Nov-17 23:28N 34°42' E 135°14'0 0.0
2014-Nov-17 22:28N 34°42' E 135°14'0 0.0
2014-Nov-17 20:28N 34°42' E 135°14'0 0.0
2014-Nov-17 19:28N 34°42' E 135°14'0 0.0
2014-Nov-17 18:22N 34°42' E 135°14'0 0.0
2014-Nov-17 17:28N 34°42' E 135°14'0 0.0
2014-Nov-17 16:28N 34°42' E 135°14'0 0.0
2014-Nov-17 15:28N 34°42' E 135°14'0 0.0
2014-Nov-17 14:22N 34°42' E 135°14'0 0.0
2014-Nov-17 13:28N 34°42' E 135°14'0 0.0
2014-Nov-17 12:10N 34°42' E 135°14'0 0.0
2014-Nov-17 11:22N 34°42' E 135°14'0 0.0
2014-Nov-17 10:28N 34°42' E 135°14'0 0.0
2014-Nov-17 09:22N 34°42' E 135°14'0 0.0
2014-Nov-17 08:28N 34°42' E 135°14'0 0.0
2014-Nov-17 07:28N 34°42' E 135°14'0 0.0
2014-Nov-17 06:16N 34°42' E 135°14'0 0.0
2014-Nov-17 05:28N 34°42' E 135°14'0 0.0
2014-Nov-17 04:28N 34°42' E 135°14'0 0.0
2014-Nov-17 03:28N 34°42' E 135°14'0 0.0
2014-Nov-17 02:16N 34°42' E 135°14'0 0.0
2014-Nov-17 01:22N 34°42' E 135°14'0 0.0
2014-Nov-17 00:22N 34°42' E 135°14'0 0.0
2014-Nov-16 23:28N 34°42' E 135°14'0 0.0
2014-Nov-16 22:28N 34°42' E 135°14'0 0.0
2014-Nov-16 21:22N 34°42' E 135°14'0 0.0
2014-Nov-16 20:28N 34°42' E 135°14'0 0.0
2014-Nov-16 19:28N 34°42' E 135°14'0 0.0
2014-Nov-16 18:28N 34°42' E 135°14'0 0.0
2014-Nov-16 17:28N 34°42' E 135°14'0 0.0
2014-Nov-16 16:28N 34°42' E 135°14'0 0.0
2014-Nov-16 15:28N 34°42' E 135°14'0 0.0
2014-Nov-16 14:28N 34°42' E 135°14'0 0.0
2014-Nov-16 13:28N 34°42' E 135°14'0 0.0
2014-Nov-16 12:28N 34°42' E 135°14'0 0.0
2014-Nov-16 11:22N 34°42' E 135°14'0 0.3
2014-Nov-16 10:33N 34°42' E 135°15'7 7.0
2014-Nov-16 09:34N 34°35' E 135°15'1616.3
2014-Nov-16 08:34N 34°22' E 135°02'1413.9
2014-Nov-16 07:33N 34°08' E 134°59'1010.1
2014-Nov-16 06:33N 33°58' E 134°59'24314.2
2014-Nov-15 13:26N 35°05' E 139°43'1112.7
2014-Nov-15 12:31N 35°16' E 139°45'9 9.2
2014-Nov-15 11:34N 35°25' E 139°47'6 0.2
2014-Nov-14 09:27N 35°22' E 139°53'5 5.3
2014-Nov-14 08:34N 35°24' E 139°48'6 6.3
2014-Nov-14 07:33N 35°28' E 139°42'0 0.4
2014-Nov-14 06:33N 35°28' E 139°41'0 0.0
2014-Nov-14 05:33N 35°28' E 139°41'0 0.0
2014-Nov-14 04:33N 35°28' E 139°41'0 0.0
2014-Nov-14 03:24N 35°28' E 139°41'0 0.0
2014-Nov-14 02:30N 35°28' E 139°41'0 0.0
2014-Nov-14 01:30N 35°28' E 139°41'0 0.0
2014-Nov-14 00:33N 35°28' E 139°41'0 0.0
2014-Nov-13 23:33N 35°28' E 139°41'0 0.0
2014-Nov-13 22:30N 35°28' E 139°41'0 0.0
2014-Nov-13 21:33N 35°28' E 139°41'0 0.0
2014-Nov-13 20:33N 35°28' E 139°41'0 0.0
2014-Nov-13 19:33N 35°28' E 139°41'0 0.0
2014-Nov-13 18:33N 35°28' E 139°41'0 0.0
2014-Nov-13 17:33N 35°28' E 139°41'0 0.0
2014-Nov-13 16:33N 35°28' E 139°41'0 0.0
2014-Nov-13 15:30N 35°28' E 139°41'0 0.0
2014-Nov-13 14:33N 35°28' E 139°41'0 0.0
2014-Nov-13 13:33N 35°28' E 139°41'0 0.0
2014-Nov-13 12:33N 35°28' E 139°41'0 0.0
2014-Nov-13 11:30N 35°28' E 139°41'0 0.0
2014-Nov-13 10:30N 35°28' E 139°41'0 0.0
2014-Nov-13 09:33N 35°28' E 139°41'0 0.0
2014-Nov-13 08:33N 35°28' E 139°41'0 0.2
2014-Nov-13 07:34N 35°28' E 139°42'8 7.5
2014-Nov-13 06:34N 35°20' E 139°44'1211.5
2014-Nov-13 05:33N 35°09' E 139°47'  
Track history (hours):
 
Tides and Currents Weather Stations Pressure Air Temp Water Temp Dewpoint Dewpoint Depression Visibility Wind Speed Wind Dir Waves Ship Positions

United Spirit

Last reported at 2014-Nov-18 09:09 UTC. Time now 2014-Nov-23 05:50 UTC.
Position N 33°59' E 134°56'.

Type: Cargo ship. MMSI: 636011280.

Date/timePositionNaut miles runAvg speedWind from/ knotsBaromVisibWave heightAir tempDewpointWater temp
2014-Nov-18 09:09N 33°59' E 134°56'1016.8
2014-Nov-18 08:33N 34°09' E 134°57'1313.5
2014-Nov-18 07:33N 34°22' E 135°01'1717.4
2014-Nov-18 06:34N 34°34' E 135°15'7 6.6
2014-Nov-18 05:28N 34°42' E 135°14'0 0.0
2014-Nov-18 04:28N 34°42' E 135°14'0 0.0
2014-Nov-18 03:28N 34°42' E 135°14'0 0.0
2014-Nov-18 02:28N 34°42' E 135°14'0 0.0
2014-Nov-18 01:28N 34°42' E 135°14'0 0.0
2014-Nov-18 00:28N 34°42' E 135°14'0 0.0
2014-Nov-17 23:28N 34°42' E 135°14'0 0.0
2014-Nov-17 22:28N 34°42' E 135°14'0 0.0
2014-Nov-17 20:28N 34°42' E 135°14'0 0.0
2014-Nov-17 19:28N 34°42' E 135°14'0 0.0
2014-Nov-17 18:22N 34°42' E 135°14'0 0.0
2014-Nov-17 17:28N 34°42' E 135°14'0 0.0
2014-Nov-17 16:28N 34°42' E 135°14'0 0.0
2014-Nov-17 15:28N 34°42' E 135°14'0 0.0
2014-Nov-17 14:22N 34°42' E 135°14'0 0.0
2014-Nov-17 13:28N 34°42' E 135°14'0 0.0
2014-Nov-17 12:10N 34°42' E 135°14'0 0.0
2014-Nov-17 11:22N 34°42' E 135°14'0 0.0
2014-Nov-17 10:28N 34°42' E 135°14'0 0.0
2014-Nov-17 09:22N 34°42' E 135°14'0 0.0
2014-Nov-17 08:28N 34°42' E 135°14'0 0.0
2014-Nov-17 07:28N 34°42' E 135°14'0 0.0
2014-Nov-17 06:16N 34°42' E 135°14'0 0.0
2014-Nov-17 05:28N 34°42' E 135°14'0 0.0
2014-Nov-17 04:28N 34°42' E 135°14'0 0.0
2014-Nov-17 03:28N 34°42' E 135°14'0 0.0
2014-Nov-17 02:16N 34°42' E 135°14'0 0.0
2014-Nov-17 01:22N 34°42' E 135°14'0 0.0
2014-Nov-17 00:22N 34°42' E 135°14'0 0.0
2014-Nov-16 23:28N 34°42' E 135°14'0 0.0
2014-Nov-16 22:28N 34°42' E 135°14'0 0.0
2014-Nov-16 21:22N 34°42' E 135°14'0 0.0
2014-Nov-16 20:28N 34°42' E 135°14'0 0.0
2014-Nov-16 19:28N 34°42' E 135°14'0 0.0
2014-Nov-16 18:28N 34°42' E 135°14'0 0.0
2014-Nov-16 17:28N 34°42' E 135°14'0 0.0
2014-Nov-16 16:28N 34°42' E 135°14'0 0.0
2014-Nov-16 15:28N 34°42' E 135°14'0 0.0
2014-Nov-16 14:28N 34°42' E 135°14'0 0.0
2014-Nov-16 13:28N 34°42' E 135°14'0 0.0
2014-Nov-16 12:28N 34°42' E 135°14'0 0.0
2014-Nov-16 11:22N 34°42' E 135°14'0 0.3
2014-Nov-16 10:33N 34°42' E 135°15'7 7.0
2014-Nov-16 09:34N 34°35' E 135°15'1616.3
2014-Nov-16 08:34N 34°22' E 135°02'1413.9
2014-Nov-16 07:33N 34°08' E 134°59'1010.1
2014-Nov-16 06:33N 33°58' E 134°59'24314.2
2014-Nov-15 13:26N 35°05' E 139°43'1112.7
2014-Nov-15 12:31N 35°16' E 139°45'9 9.2
2014-Nov-15 11:34N 35°25' E 139°47'6 0.2
2014-Nov-14 09:27N 35°22' E 139°53'5 5.3
2014-Nov-14 08:34N 35°24' E 139°48'6 6.3
2014-Nov-14 07:33N 35°28' E 139°42'0 0.4
2014-Nov-14 06:33N 35°28' E 139°41'0 0.0
2014-Nov-14 05:33N 35°28' E 139°41'0 0.0
2014-Nov-14 04:33N 35°28' E 139°41'0 0.0
2014-Nov-14 03:24N 35°28' E 139°41'0 0.0
2014-Nov-14 02:30N 35°28' E 139°41'0 0.0
2014-Nov-14 01:30N 35°28' E 139°41'0 0.0
2014-Nov-14 00:33N 35°28' E 139°41'0 0.0
2014-Nov-13 23:33N 35°28' E 139°41'0 0.0
2014-Nov-13 22:30N 35°28' E 139°41'0 0.0
2014-Nov-13 21:33N 35°28' E 139°41'0 0.0
2014-Nov-13 20:33N 35°28' E 139°41'0 0.0
2014-Nov-13 19:33N 35°28' E 139°41'0 0.0
2014-Nov-13 18:33N 35°28' E 139°41'0 0.0
2014-Nov-13 17:33N 35°28' E 139°41'0 0.0
2014-Nov-13 16:33N 35°28' E 139°41'0 0.0
2014-Nov-13 15:30N 35°28' E 139°41'0 0.0
2014-Nov-13 14:33N 35°28' E 139°41'0 0.0
2014-Nov-13 13:33N 35°28' E 139°41'0 0.0
2014-Nov-13 12:33N 35°28' E 139°41'0 0.0
2014-Nov-13 11:30N 35°28' E 139°41'0 0.0
2014-Nov-13 10:30N 35°28' E 139°41'0 0.0
2014-Nov-13 09:33N 35°28' E 139°41'0 0.0
2014-Nov-13 08:33N 35°28' E 139°41'0 0.2
2014-Nov-13 07:34N 35°28' E 139°42'8 7.5
2014-Nov-13 06:34N 35°20' E 139°44'1211.5
2014-Nov-13 05:33N 35°09' E 139°47'  

Dump ship's entire track history